Time;durP1;ratioP1;P1;durP2;ratioP2;P2;SDS_P1;SDS_P2;PMS_P1;PMS_P2;Temp;Humidity;BMP_temperature;BMP_pressure;BME280_temperature;BME280_humidity;BME280_pressure;Samples;Min_cycle;Max_cycle;Signal;HPM_P1;HPM_P2
2022/12/17 13:07:21;;;;;;;16.17;13.18;;;26.40;7.20;;;;;;4992870;28;19912;-83
2022/12/17 13:09:50;;;;;;;16.92;13.63;;;25.80;7.10;;;;;;4976490;28;20125;-82
2022/12/17 13:12:30;;;;;;;19.60;13.45;;;26.00;7.30;;;;;;4976370;28;20026;-81
2022/12/17 13:15:33;;;;;;;17.13;13.55;;;26.40;7.10;;;;;;4994398;28;20375;-81
2022/12/17 13:18:23;;;;;;;19.90;14.27;;;26.50;6.70;;;;;;4956162;28;20129;-83
2022/12/17 13:21:03;;;;;;;17.75;12.25;;;26.90;6.40;;;;;;4956713;28;20129;-83
2022/12/17 13:23:36;;;;;;;17.88;12.95;;;26.40;6.70;;;;;;4956321;28;20086;-82
2022/12/17 13:26:43;;;;;;;16.85;14.02;;;27.00;6.70;;;;;;4955737;28;20383;-83
2022/12/17 13:29:27;;;;;;;16.38;13.93;;;27.10;6.10;;;;;;4955896;28;20064;-83
2022/12/17 13:32:29;;;;;;;14.70;11.90;;;27.20;6.20;;;;;;4955802;28;20492;-82
2022/12/17 13:35:20;;;;;;;13.50;11.65;;;27.50;6.00;;;;;;4956250;28;20039;-83
2022/12/17 13:38:39;;;;;;;15.35;12.77;;;26.10;6.30;;;;;;4955800;28;20043;-82
2022/12/17 13:41:14;;;;;;;13.82;11.77;;;26.50;6.50;;;;;;4917908;29;20484;-83
2022/12/17 13:44:14;;;;;;;14.70;12.57;;;26.40;6.60;;;;;;4917869;29;20027;-82
2022/12/17 13:46:42;;;;;;;16.65;12.88;;;26.80;6.10;;;;;;4903716;29;20527;-82
2022/12/17 13:49:28;;;;;;;20.55;14.80;;;27.20;6.20;;;;;;4946831;28;20487;-82
2022/12/17 13:52:18;;;;;;;16.75;13.80;;;27.70;5.80;;;;;;4973041;28;20451;-83
2022/12/17 13:54:45;;;;;;;17.48;14.77;;;27.80;5.60;;;;;;4972175;28;20043;-82
2022/12/17 13:57:25;;;;;;;18.40;14.55;;;27.70;5.30;;;;;;4955809;28;20078;-82
2022/12/17 13:59:56;;;;;;;17.10;13.45;;;26.00;6.30;;;;;;4973175;28;20086;-83
2022/12/17 14:02:40;;;;;;;18.95;13.70;;;26.00;7.00;;;;;;4973002;28;20034;-82
2022/12/17 14:05:20;;;;;;;19.15;14.23;;;26.20;7.60;;;;;;4973085;28;20364;-81
2022/12/17 14:07:47;;;;;;;16.25;13.98;;;25.90;6.70;;;;;;4972503;28;20030;-82
2022/12/17 14:10:17;;;;;;;17.38;13.73;;;25.90;7.60;;;;;;4971682;28;20500;-81
2022/12/17 14:12:45;;;;;;;17.95;14.35;;;25.70;7.10;;;;;;4974090;28;20038;-82
2022/12/17 14:15:27;;;;;;;17.17;13.82;;;25.40;7.90;;;;;;4973806;28;20383;-81
2022/12/17 14:17:53;;;;;;;17.48;13.60;;;23.80;8.40;;;;;;4971983;28;20038;-82
2022/12/17 14:20:24;;;;;;;15.48;12.75;;;23.00;9.40;;;;;;4956267;28;20057;-82
2022/12/17 14:22:53;;;;;;;18.85;14.02;;;22.30;10.40;;;;;;4956533;28;20495;-83
2022/12/17 14:25:25;;;;;;;14.43;12.48;;;21.80;11.00;;;;;;4956269;28;20038;-82
2022/12/17 14:28:21;;;;;;;15.90;13.00;;;21.80;11.30;;;;;;4972138;28;20444;-83
2022/12/17 14:30:47;;;;;;;16.85;13.55;;;21.60;11.20;;;;;;4972568;28;20026;-83
2022/12/17 14:33:30;;;;;;;18.83;14.68;;;21.20;11.60;;;;;;4973645;28;20398;-82
2022/12/17 14:35:59;;;;;;;17.10;13.77;;;20.30;11.90;;;;;;4971686;28;20047;-82
2022/12/17 14:38:28;;;;;;;21.20;15.18;;;19.70;13.10;;;;;;4956595;28;20030;-83
2022/12/17 14:42:24;;;;;;;20.92;16.05;;;18.30;13.20;;;;;;4973990;28;20058;-81
2022/12/17 14:43:57;;;;;;;27.30;19.45;;;15.70;15.30;;;;;;4971064;28;20035;-82
2022/12/17 14:46:24;;;;;;;28.63;19.40;;;12.50;18.90;;;;;;4973174;28;20562;-81
2022/12/17 14:49:00;;;;;;;27.70;18.67;;;10.20;22.90;;;;;;4972114;28;20130;-83
2022/12/17 14:51:36;;;;;;;33.63;20.77;;;8.50;27.40;;;;;;4971914;28;20043;-82
2022/12/17 14:54:25;;;;;;;38.75;22.67;;;7.20;31.10;;;;;;4972729;28;20038;-82
2022/12/17 14:56:53;;;;;;;30.83;19.25;;;6.00;34.20;;;;;;4978406;28;20033;-81
2022/12/17 14:59:34;;;;;;;28.67;18.80;;;5.30;36.70;;;;;;4974300;28;20510;-81
2022/12/17 15:02:12;;;;;;;29.05;16.83;;;4.60;38.80;;;;;;4975943;28;20023;-81
2022/12/17 15:04:41;;;;;;;26.33;15.80;;;4.10;40.80;;;;;;4976284;28;20027;-83
2022/12/17 15:07:10;;;;;;;23.95;15.35;;;3.50;42.40;;;;;;4976438;28;20022;-83
2022/12/17 15:09:37;;;;;;;28.38;17.25;;;2.90;43.90;;;;;;4975705;28;20081;-81
2022/12/17 15:12:04;;;;;;;25.63;17.77;;;2.40;45.20;;;;;;4975598;28;20019;-81
2022/12/17 15:14:30;;;;;;;27.88;18.67;;;2.00;46.60;;;;;;4959844;28;20110;-82
2022/12/17 15:17:00;;;;;;;30.88;19.88;;;1.80;47.90;;;;;;4977315;28;20034;-82
2022/12/17 15:19:27;;;;;;;25.95;17.33;;;1.50;48.90;;;;;;4976727;28;20047;-82
2022/12/17 15:21:53;;;;;;;30.95;18.10;;;1.30;50.20;;;;;;4959845;28;20391;-81
2022/12/17 15:24:20;;;;;;;33.78;18.45;;;1.20;50.70;;;;;;4975485;28;20026;-83
2022/12/17 15:26:49;;;;;;;32.72;19.42;;;0.90;51.50;;;;;;4975871;28;20033;-83
2022/12/17 15:29:14;;;;;;;31.13;18.63;;;0.80;52.10;;;;;;4975715;28;20045;-83
2022/12/17 15:31:45;;;;;;;31.05;18.20;;;0.60;52.40;;;;;;4959820;28;20023;-83
2022/12/17 15:34:11;;;;;;;32.00;19.60;;;0.30;53.00;;;;;;4960439;28;20038;-83
2022/12/17 15:36:37;;;;;;;34.97;20.50;;;0.10;53.80;;;;;;4975512;28;20074;-83
2022/12/17 15:39:05;;;;;;;33.17;20.38;;;-0.20;55.10;;;;;;4975405;28;20026;-82
2022/12/17 15:44:18;;;;;;;37.45;21.70;;;-0.70;57.20;;;;;;4977264;28;20037;-82
2022/12/17 15:46:44;;;;;;;36.88;21.98;;;-1.00;57.10;;;;;;4959032;28;20035;-82
2022/12/17 15:49:12;;;;;;;35.75;20.55;;;-1.20;58.00;;;;;;4975472;28;20458;-82
2022/12/17 15:51:40;;;;;;;33.20;19.60;;;-1.20;59.00;;;;;;4973079;28;20066;-83
2022/12/17 15:54:10;;;;;;;35.97;20.75;;;-1.20;58.60;;;;;;4975367;28;20056;-82
2022/12/17 15:57:01;;;;;;;41.80;24.98;;;-1.30;59.60;;;;;;4975215;28;20023;-84
2022/12/17 15:59:32;;;;;;;56.40;32.05;;;-1.30;59.10;;;;;;4975185;28;20114;-82
2022/12/17 16:01:59;;;;;;;66.35;35.28;;;-1.40;58.20;;;;;;4975454;28;20019;-83
2022/12/17 16:04:27;;;;;;;67.38;35.42;;;-1.50;58.60;;;;;;4959947;28;20089;-82
2022/12/17 16:06:55;;;;;;;69.40;37.80;;;-1.60;58.70;;;;;;4976678;28;20027;-82
2022/12/17 16:09:24;;;;;;;77.97;40.28;;;-1.70;59.00;;;;;;4964319;28;20050;-82
2022/12/17 16:11:54;;;;;;;82.68;42.45;;;-1.70;59.30;;;;;;4977590;28;20026;-82
2022/12/17 16:14:25;;;;;;;78.88;40.03;;;-1.80;59.50;;;;;;4976062;28;20034;-81
2022/12/17 16:16:52;;;;;;;63.30;34.85;;;-1.90;59.50;;;;;;4971790;28;20063;-81
2022/12/17 16:19:31;;;;;;;56.90;30.58;;;-1.90;59.70;;;;;;4977211;28;20429;-82
2022/12/17 16:21:59;;;;;;;63.08;32.38;;;-2.00;59.60;;;;;;4958749;28;20027;-82
2022/12/17 16:24:28;;;;;;;69.70;33.78;;;-2.00;59.50;;;;;;4973698;28;20118;-83
2022/12/17 16:27:18;;;;;;;59.80;29.60;;;-2.00;59.50;;;;;;4976102;28;20498;-81
2022/12/17 16:30:02;;;;;;;66.97;32.70;;;-2.10;59.30;;;;;;4976575;28;20038;-83
2022/12/17 16:32:33;;;;;;;64.03;31.98;;;-2.10;59.40;;;;;;4974595;28;20027;-83
2022/12/17 16:34:59;;;;;;;53.83;28.33;;;-2.10;59.50;;;;;;4973870;28;20126;-82
2022/12/17 16:37:27;;;;;;;50.65;26.75;;;-2.20;59.20;;;;;;4958550;28;20114;-81
2022/12/17 16:39:53;;;;;;;44.67;26.48;;;-2.30;59.10;;;;;;4974318;28;20031;-82
2022/12/17 16:42:18;;;;;;;59.40;30.15;;;-2.40;59.30;;;;;;4974849;28;20403;-83
2022/12/17 16:44:45;;;;;;;49.88;28.40;;;-2.50;59.80;;;;;;4974606;28;20035;-83
2022/12/17 16:47:12;;;;;;;44.50;25.45;;;-2.60;59.90;;;;;;4958756;28;20100;-83
2022/12/17 16:49:38;;;;;;;42.13;24.00;;;-2.60;59.80;;;;;;4974919;28;20049;-81
2022/12/17 16:52:04;;;;;;;46.35;26.08;;;-2.60;60.10;;;;;;4974483;28;20051;-82
2022/12/17 16:54:31;;;;;;;50.33;27.73;;;-2.60;60.10;;;;;;4958733;28;20035;-84
2022/12/17 16:56:59;;;;;;;50.85;28.10;;;-2.70;59.80;;;;;;4957549;28;20082;-82
2022/12/17 16:59:36;;;;;;;52.10;29.65;;;-2.80;59.40;;;;;;4974310;28;20031;-79
2022/12/17 17:02:26;;;;;;;64.93;31.67;;;-2.80;59.50;;;;;;4959827;28;20039;-83
2022/12/17 17:04:59;;;;;;;56.50;29.17;;;-2.90;59.80;;;;;;4979513;28;20034;-89
2022/12/17 17:07:25;;;;;;;58.70;29.27;;;-2.90;60.00;;;;;;4991831;28;20484;-82
2022/12/17 17:09:57;;;;;;;61.42;30.10;;;-3.00;59.90;;;;;;4968856;28;20039;-82
2022/12/17 17:12:25;;;;;;;53.40;27.30;;;-3.10;59.60;;;;;;4987873;28;20031;-80
2022/12/17 17:14:57;;;;;;;51.40;26.23;;;-3.20;59.30;;;;;;4988670;28;20049;-85
2022/12/17 17:17:51;;;;;;;51.35;26.73;;;-3.20;59.50;;;;;;4981754;28;20057;-86
2022/12/17 17:20:31;;;;;;;52.65;27.40;;;-3.20;59.50;;;;;;4982518;28;20027;-87
2022/12/17 17:22:59;;;;;;;58.05;29.88;;;-3.20;59.70;;;;;;4928355;28;20038;-88
2022/12/17 17:25:27;;;;;;;51.33;27.90;;;-3.20;59.80;;;;;;4962655;28;20476;-86
2022/12/17 17:28:02;;;;;;;48.55;27.55;;;-3.30;58.90;;;;;;4980701;28;20035;-88
2022/12/17 17:30:29;;;;;;;50.45;28.75;;;-3.50;58.70;;;;;;4959956;28;20047;-86
2022/12/17 17:33:45;;;;;;;56.72;31.92;;;-3.60;59.20;;;;;;4975363;28;20035;-88
2022/12/17 17:36:17;;;;;;;58.83;31.63;;;-3.70;59.70;;;;;;4975754;28;20027;-89
2022/12/17 17:38:53;;;;;;;55.03;29.13;;;-3.70;60.90;;;;;;4960037;28;20775;-87
2022/12/17 17:41:34;;;;;;;45.53;26.05;;;-3.80;61.00;;;;;;4977912;28;20035;-86
2022/12/17 17:44:07;;;;;;;55.40;27.58;;;-3.90;60.90;;;;;;4981530;28;20173;-87
2022/12/17 17:46:34;;;;;;;49.70;27.40;;;-4.00;60.80;;;;;;4979452;28;20030;-82
2022/12/17 17:49:07;;;;;;;59.38;32.53;;;-4.20;60.80;;;;;;4986285;28;20057;-85
2022/12/17 17:51:37;;;;;;;70.18;36.88;;;-4.20;61.20;;;;;;4981502;28;20046;-88
2022/12/17 17:54:03;;;;;;;78.88;38.53;;;-4.20;61.30;;;;;;4964500;28;20065;-87
2022/12/17 17:56:32;;;;;;;65.38;35.22;;;-4.30;61.20;;;;;;4984308;28;20126;-85
2022/12/17 17:59:02;;;;;;;76.40;41.30;;;-4.40;61.40;;;;;;4985592;28;20035;-87
2022/12/17 18:01:44;;;;;;;75.90;38.92;;;-4.40;61.50;;;;;;4986223;28;20043;-86
2022/12/17 18:04:13;;;;;;;75.03;38.72;;;-4.50;61.40;;;;;;4983646;28;20151;-87
2022/12/17 18:06:42;;;;;;;71.50;37.67;;;-4.50;61.70;;;;;;4944416;28;20035;-80
2022/12/17 18:09:09;;;;;;;75.70;37.05;;;-4.50;61.80;;;;;;4974856;28;20038;-85
2022/12/17 18:11:36;;;;;;;63.60;34.80;;;-4.50;61.90;;;;;;4973792;28;20085;-81
2022/12/17 18:14:29;;;;;;;80.55;39.78;;;-4.50;61.80;;;;;;4974482;28;20476;-83
2022/12/17 18:17:01;;;;;;;79.57;41.15;;;-4.60;62.10;;;;;;4960276;28;20038;-83
2022/12/17 18:19:26;;;;;;;82.05;42.00;;;-4.70;62.30;;;;;;4972834;28;20027;-79
2022/12/17 18:21:52;;;;;;;74.32;40.90;;;-4.70;62.30;;;;;;4972697;28;20026;-73
2022/12/17 18:24:21;;;;;;;88.18;44.90;;;-3.90;87.20;;;;;;4972773;28;20085;-75
2022/12/17 18:26:48;;;;;;;87.65;44.20;;;-3.60;87.80;;;;;;4973860;28;20053;-73
2022/12/17 18:29:23;;;;;;;87.90;43.65;;;-3.20;81.80;;;;;;4972159;28;20062;-76
2022/12/17 18:31:49;;;;;;;74.45;42.38;;;-2.90;74.60;;;;;;4988851;28;20050;-75
2022/12/17 18:34:17;;;;;;;71.45;39.22;;;-2.40;68.60;;;;;;4975993;28;20476;-74
2022/12/17 18:36:44;;;;;;;79.40;40.80;;;-1.70;68.20;;;;;;4978032;28;20470;-77
2022/12/17 18:39:24;;;;;;;76.05;40.47;;;-1.50;62.00;;;;;;4978667;28;20026;-86
2022/12/17 18:44:40;;;;;;;76.35;41.22;;;-2.40;54.80;;;;;;4998666;28;20049;-84
2022/12/17 18:47:07;;;;;;;67.03;37.50;;;-3.20;56.10;;;;;;5016403;28;20088;-86
2022/12/17 18:49:33;;;;;;;64.60;37.15;;;-3.60;57.80;;;;;;5016114;28;20042;-85
2022/12/17 18:51:58;;;;;;;68.60;36.85;;;-3.90;58.90;;;;;;5015550;28;20530;-82
2022/12/17 18:54:26;;;;;;;84.95;44.15;;;-4.20;59.70;;;;;;5017120;28;20076;-84
2022/12/17 18:56:53;;;;;;;89.38;44.60;;;-4.40;60.80;;;;;;5017223;28;20022;-85
2022/12/17 18:59:21;;;;;;;85.78;43.88;;;-4.50;61.40;;;;;;5016866;28;20486;-86
2022/12/17 19:01:47;;;;;;;79.80;42.28;;;-4.80;62.40;;;;;;5017029;28;20014;-82
2022/12/17 19:04:15;;;;;;;97.53;48.17;;;-4.90;63.20;;;;;;5016030;28;20429;-83
2022/12/17 19:06:42;;;;;;;88.07;45.78;;;-4.90;63.50;;;;;;5017354;28;20115;-86
2022/12/17 19:09:16;;;;;;;66.18;38.63;;;-5.00;63.40;;;;;;5015811;28;20041;-86
2022/12/17 19:11:42;;;;;;;71.63;38.67;;;-5.10;63.50;;;;;;5015885;28;20025;-85
2022/12/17 19:14:07;;;;;;;81.63;42.03;;;-5.10;64.00;;;;;;5016258;28;20080;-86
2022/12/17 19:16:33;;;;;;;85.05;46.15;;;-5.10;64.10;;;;;;5016642;28;20105;-85
2022/12/17 19:19:01;;;;;;;84.15;42.95;;;-5.20;64.10;;;;;;5015243;28;20038;-84
2022/12/17 19:21:28;;;;;;;77.05;41.33;;;-5.40;64.40;;;;;;5015046;28;20148;-84
2022/12/17 19:23:58;;;;;;;81.97;44.10;;;-5.60;66.50;;;;;;5015165;28;20096;-84
2022/12/17 19:26:24;;;;;;;83.43;43.25;;;-5.80;68.10;;;;;;5016349;28;20029;-84
2022/12/17 19:28:53;;;;;;;72.68;40.88;;;-5.90;69.00;;;;;;5016818;28;20113;-85
2022/12/17 19:31:21;;;;;;;86.63;43.75;;;-5.80;68.70;;;;;;5016515;28;20113;-84
2022/12/17 19:33:46;;;;;;;96.30;48.88;;;-5.70;68.80;;;;;;5014981;28;20406;-84
2022/12/17 19:36:15;;;;;;;85.03;44.42;;;-5.70;68.40;;;;;;5015037;28;20064;-84
2022/12/17 19:38:41;;;;;;;82.38;43.13;;;-5.70;68.80;;;;;;5014899;28;20033;-84
2022/12/17 19:41:15;;;;;;;81.57;43.08;;;-5.70;67.70;;;;;;5015039;28;20033;-84
2022/12/17 19:43:45;;;;;;;81.18;44.47;;;-5.60;67.20;;;;;;5015652;28;20052;-85
2022/12/17 19:46:14;;;;;;;78.88;42.72;;;-5.70;66.50;;;;;;5014962;28;20033;-85
2022/12/17 19:48:41;;;;;;;76.05;41.65;;;-5.70;66.30;;;;;;5015397;28;20030;-84
2022/12/17 19:51:09;;;;;;;81.85;43.83;;;-5.60;66.40;;;;;;5014710;28;20050;-84
2022/12/17 19:53:38;;;;;;;83.13;43.80;;;-5.60;66.20;;;;;;5015032;28;20072;-87
2022/12/17 19:56:14;;;;;;;84.28;45.33;;;-5.40;65.90;;;;;;5016366;28;20030;-88
2022/12/17 19:58:40;;;;;;;91.22;46.03;;;-5.40;65.30;;;;;;5016607;28;20029;-87
2022/12/17 20:01:17;;;;;;;93.55;47.47;;;-5.30;64.80;;;;;;5017319;28;20471;-86
2022/12/17 20:03:44;;;;;;;92.50;46.10;;;-5.40;63.90;;;;;;5015113;28;20029;-86
2022/12/17 20:06:13;;;;;;;91.00;45.45;;;-5.40;63.50;;;;;;5018315;28;20030;-86
2022/12/17 20:08:39;;;;;;;82.65;43.03;;;-5.30;63.40;;;;;;5016941;28;20022;-85
2022/12/17 20:11:31;;;;;;;88.72;44.00;;;-5.50;62.60;;;;;;5016200;28;20049;-85
2022/12/17 20:14:04;;;;;;;93.20;46.72;;;-5.50;62.70;;;;;;5015637;28;20084;-83
2022/12/17 20:16:33;;;;;;;99.30;48.17;;;-5.60;62.60;;;;;;5014769;28;20034;-85
2022/12/17 20:19:00;;;;;;;124.03;58.72;;;-5.60;62.60;;;;;;5014516;28;20044;-84
2022/12/17 20:21:25;;;;;;;107.20;53.92;;;-5.70;62.60;;;;;;5014395;28;20131;-85
2022/12/17 20:23:51;;;;;;;107.05;52.17;;;-5.80;62.90;;;;;;5013998;28;20411;-85
2022/12/17 20:26:17;;;;;;;103.03;51.80;;;-5.90;63.20;;;;;;5015587;28;20057;-85
2022/12/17 20:28:44;;;;;;;110.28;54.08;;;-5.80;63.70;;;;;;5015690;28;20494;-85
2022/12/17 20:31:11;;;;;;;94.15;47.42;;;-5.80;63.60;;;;;;5013830;28;20033;-85
2022/12/17 20:33:37;;;;;;;93.82;47.67;;;-5.80;63.50;;;;;;5014401;28;20053;-84
2022/12/17 20:36:04;;;;;;;94.78;46.30;;;-5.80;63.20;;;;;;5014194;28;20111;-84
2022/12/17 20:38:30;;;;;;;82.47;41.92;;;-5.80;63.20;;;;;;5014571;28;20032;-85
2022/12/17 20:40:56;;;;;;;80.28;40.22;;;-5.80;62.80;;;;;;5014477;28;20026;-85
2022/12/17 20:43:21;;;;;;;81.30;42.30;;;-5.70;62.20;;;;;;5015365;28;20022;-82
2022/12/17 20:45:54;;;;;;;84.13;44.55;;;-5.80;61.60;;;;;;5014134;28;20447;-85
2022/12/17 20:48:20;;;;;;;87.03;41.97;;;-5.80;61.90;;;;;;5015757;28;20474;-87
2022/12/17 20:50:46;;;;;;;85.07;44.75;;;-5.90;62.10;;;;;;5017923;28;20056;-88
2022/12/17 20:53:12;;;;;;;80.70;43.50;;;-6.00;62.50;;;;;;5019923;28;20025;-87
2022/12/17 20:55:37;;;;;;;86.85;44.80;;;-6.10;63.00;;;;;;5018213;28;20116;-86
2022/12/17 20:58:03;;;;;;;90.28;47.30;;;-6.30;63.40;;;;;;5017497;28;20132;-87
2022/12/17 21:00:29;;;;;;;98.38;50.42;;;-6.30;63.50;;;;;;5017857;28;20029;-87
2022/12/17 21:02:55;;;;;;;102.40;50.65;;;-6.40;63.50;;;;;;5018209;28;20183;-88
2022/12/17 21:05:21;;;;;;;113.95;56.38;;;-6.40;63.70;;;;;;5018444;28;20521;-87
2022/12/17 21:07:49;;;;;;;112.15;55.10;;;-6.40;64.20;;;;;;5017510;28;20458;-87
2022/12/17 21:10:15;;;;;;;123.32;57.97;;;-6.40;64.70;;;;;;5017410;28;20064;-87
2022/12/17 21:15:27;;;;;;;134.68;59.47;;;-6.30;65.10;;;;;;5034828;28;20389;-85
2022/12/17 21:17:54;;;;;;;122.82;60.78;;;-6.20;64.90;;;;;;5034145;28;20025;-84
2022/12/17 21:20:20;;;;;;;119.80;58.10;;;-6.30;64.80;;;;;;5016781;28;20026;-83
2022/12/17 21:22:46;;;;;;;122.05;57.00;;;-6.40;65.30;;;;;;5016221;28;20021;-83
2022/12/17 21:25:11;;;;;;;123.65;56.50;;;-6.50;66.60;;;;;;5034130;28;20378;-84
2022/12/17 21:27:39;;;;;;;114.32;54.35;;;-6.60;66.90;;;;;;5016487;28;20034;-84
2022/12/17 21:30:06;;;;;;;103.35;49.70;;;-6.50;67.80;;;;;;5016236;28;20029;-83
2022/12/17 21:32:31;;;;;;;148.15;52.35;;;-6.60;68.80;;;;;;5016119;28;20057;-84
2022/12/17 21:34:57;;;;;;;109.78;49.63;;;-6.70;69.60;;;;;;5016197;28;20037;-84
2022/12/17 21:37:22;;;;;;;96.05;44.08;;;-7.00;70.20;;;;;;5033722;28;20021;-84
2022/12/17 21:39:48;;;;;;;83.63;42.25;;;-6.90;70.90;;;;;;5016366;28;20025;-85
2022/12/17 21:44:57;;;;;;;86.55;44.25;;;-7.00;70.60;;;;;;5034740;28;20032;-86
2022/12/17 21:47:23;;;;;;;85.63;44.00;;;-7.20;70.50;;;;;;5036383;28;20021;-87
2022/12/17 21:49:49;;;;;;;80.00;43.08;;;-7.30;70.10;;;;;;5020599;28;20039;-86
2022/12/17 21:52:14;;;;;;;80.63;39.85;;;-7.40;70.00;;;;;;5035685;28;20061;-87
2022/12/17 21:54:40;;;;;;;80.28;40.78;;;-7.30;70.30;;;;;;5057780;28;20036;-87
2022/12/17 21:57:06;;;;;;;100.53;49.10;;;-7.10;69.70;;;;;;5040858;28;20068;-87
2022/12/17 21:59:31;;;;;;;93.10;45.78;;;-7.20;67.90;;;;;;5036241;28;20030;-87
2022/12/17 22:01:57;;;;;;;87.35;42.47;;;-7.30;67.60;;;;;;5026460;28;20025;-86
2022/12/17 22:04:23;;;;;;;104.88;50.08;;;-7.30;67.30;;;;;;5025054;28;20120;-88
2022/12/17 22:06:49;;;;;;;105.30;51.45;;;-7.30;67.10;;;;;;5028543;28;20025;-87
2022/12/17 22:09:16;;;;;;;108.72;49.58;;;-7.20;67.00;;;;;;5031105;28;20061;-86
2022/12/17 22:11:42;;;;;;;100.53;48.63;;;-7.20;66.80;;;;;;5030671;28;20703;-85
2022/12/17 22:14:10;;;;;;;100.03;47.85;;;-7.10;66.80;;;;;;5028819;28;20029;-84
2022/12/17 22:16:47;;;;;;;104.18;48.83;;;-7.10;66.90;;;;;;5034738;28;20025;-84
2022/12/17 22:19:19;;;;;;;93.25;45.47;;;-7.10;66.20;;;;;;5016063;28;20029;-85
2022/12/17 22:21:46;;;;;;;88.18;43.97;;;-7.10;66.00;;;;;;5016306;28;20022;-84
2022/12/17 22:24:13;;;;;;;98.28;46.88;;;-7.00;66.00;;;;;;5016275;28;20128;-85
2022/12/17 22:26:40;;;;;;;84.93;44.03;;;-6.90;66.00;;;;;;5016493;28;20438;-84
2022/12/17 22:29:05;;;;;;;91.93;44.65;;;-6.90;65.60;;;;;;5015726;28;20033;-83
2022/12/17 22:34:15;;;;;;;89.30;44.22;;;-6.80;64.50;;;;;;5034090;28;20095;-84
2022/12/17 22:36:41;;;;;;;94.05;44.60;;;-6.90;64.10;;;;;;5015970;28;20017;-84
2022/12/17 22:39:14;;;;;;;96.22;47.75;;;-7.00;64.10;;;;;;5016050;28;20021;-83
2022/12/17 22:44:25;;;;;;;79.73;41.07;;;-7.10;64.30;;;;;;5033900;28;20053;-84
2022/12/17 22:46:51;;;;;;;96.03;47.25;;;-7.20;63.70;;;;;;5015716;28;20089;-83
2022/12/17 22:49:17;;;;;;;104.35;51.97;;;-7.20;65.60;;;;;;5033336;28;20036;-83
2022/12/17 22:51:43;;;;;;;95.88;48.92;;;-7.20;66.10;;;;;;5015460;28;20410;-83
2022/12/17 22:54:10;;;;;;;99.60;47.85;;;-7.20;65.10;;;;;;5033631;28;20029;-85
2022/12/17 22:56:38;;;;;;;104.13;47.90;;;-7.20;65.50;;;;;;5015569;28;20029;-84
2022/12/17 22:59:04;;;;;;;103.40;47.00;;;-7.20;66.30;;;;;;5015362;28;20370;-84
2022/12/17 23:01:30;;;;;;;94.38;45.30;;;-7.20;66.60;;;;;;5015530;28;20067;-84
2022/12/17 23:03:58;;;;;;;91.82;44.13;;;-7.20;66.80;;;;;;5015567;28;20025;-84
2022/12/17 23:06:25;;;;;;;98.13;46.80;;;-7.10;67.00;;;;;;5015199;28;20018;-83
2022/12/17 23:08:51;;;;;;;96.82;46.85;;;-7.10;66.20;;;;;;5033138;28;20111;-83
2022/12/17 23:11:20;;;;;;;91.78;44.17;;;-7.20;66.20;;;;;;5015176;28;20466;-85
2022/12/17 23:13:45;;;;;;;94.32;43.70;;;-7.30;66.80;;;;;;5015712;28;20462;-85
2022/12/17 23:16:12;;;;;;;97.13;44.10;;;-7.30;67.10;;;;;;5033542;28;20037;-86
2022/12/17 23:18:39;;;;;;;86.45;42.35;;;-7.50;68.00;;;;;;5015698;28;20080;-86
2022/12/17 23:21:16;;;;;;;104.20;48.78;;;-7.60;68.20;;;;;;5019219;28;20061;-86
2022/12/17 23:23:42;;;;;;;106.07;48.65;;;-7.50;68.50;;;;;;5019235;28;20064;-86
2022/12/17 23:26:10;;;;;;;107.00;48.97;;;-7.60;68.10;;;;;;5019385;28;20082;-86
2022/12/17 23:28:41;;;;;;;108.30;49.17;;;-7.50;67.90;;;;;;5019285;28;20029;-85
2022/12/17 23:31:09;;;;;;;102.40;48.63;;;-7.50;67.80;;;;;;5019636;28;20410;-85
2022/12/17 23:33:35;;;;;;;110.38;49.60;;;-7.50;67.60;;;;;;5019124;28;20022;-88
2022/12/17 23:36:06;;;;;;;103.30;47.35;;;-7.50;67.20;;;;;;5020860;28;20139;-88
2022/12/17 23:38:31;;;;;;;102.20;48.90;;;-7.40;67.60;;;;;;5020135;28;20040;-90
2022/12/17 23:41:05;;;;;;;108.50;48.28;;;-7.40;66.70;;;;;;5020662;28;20029;-90
2022/12/17 23:43:33;;;;;;;106.20;50.47;;;-7.40;67.40;;;;;;5020556;28;20029;-90
2022/12/17 23:46:02;;;;;;;108.90;50.25;;;-7.40;66.50;;;;;;5020989;28;20037;-89
2022/12/17 23:48:33;;;;;;;94.70;45.90;;;-7.40;67.50;;;;;;5020974;28;20036;-90
2022/12/17 23:51:02;;;;;;;94.28;45.50;;;-7.40;68.70;;;;;;5019965;28;20080;-90
2022/12/17 23:53:35;;;;;;;99.45;47.50;;;-7.40;68.80;;;;;;5019753;28;20032;-88
2022/12/17 23:56:10;;;;;;;139.82;58.60;;;-7.30;68.80;;;;;;5020308;28;20032;-88
2022/12/17 23:58:37;;;;;;;135.48;59.30;;;-7.30;67.80;;;;;;5020478;28;20064;-88
